Time;durP1;ratioP1;P1;durP2;ratioP2;P2;SDS_P1;SDS_P2;PMS_P1;PMS_P2;Temp;Humidity;BMP_temperature;BMP_pressure;BME280_temperature;BME280_humidity;BME280_pressure;Samples;Min_cycle;Max_cycle;Signal;HPM_P1;HPM_P2
2023/01/28 00:02:01;;;;;;;3.33;2.45;;;;;;;;;;6253568;23;20038;-83
2023/01/28 00:04:28;;;;;;;4.03;3.00;;;;;;;;;;6243840;22;20016;-83
2023/01/28 00:06:57;;;;;;;3.28;2.30;;;;;;;;;;6215073;23;20031;-83
2023/01/28 00:09:26;;;;;;;4.43;3.33;;;;;;;;;;6253272;23;20016;-83
2023/01/28 00:11:56;;;;;;;3.53;3.20;;;;;;;;;;6217407;23;20023;-83
2023/01/28 00:14:25;;;;;;;4.35;2.67;;;;;;;;;;6216725;23;20353;-82
2023/01/28 00:16:53;;;;;;;4.38;3.33;;;;;;;;;;6190767;23;20027;-82
2023/01/28 00:19:20;;;;;;;4.25;2.95;;;;;;;;;;6191501;23;20058;-83
2023/01/28 00:21:47;;;;;;;5.95;2.50;;;;;;;;;;6191500;23;20012;-83
2023/01/28 00:24:16;;;;;;;2.90;1.63;;;;;;;;;;6244116;22;20024;-83
2023/01/28 00:26:45;;;;;;;3.28;2.33;;;;;;;;;;6216861;23;20025;-82
2023/01/28 00:29:12;;;;;;;2.70;2.25;;;;;;;;;;6217530;23;20482;-83
2023/01/28 00:31:46;;;;;;;3.00;2.53;;;;;;;;;;6191091;23;20460;-83
2023/01/28 00:34:13;;;;;;;2.45;2.13;;;;;;;;;;6220448;23;20012;-83
2023/01/28 00:36:44;;;;;;;2.58;1.75;;;;;;;;;;6190701;23;20039;-83
2023/01/28 00:39:15;;;;;;;1.63;1.52;;;;;;;;;;6190964;23;20472;-83
2023/01/28 00:41:43;;;;;;;2.45;1.95;;;;;;;;;;6252368;23;20028;-83
2023/01/28 00:44:12;;;;;;;2.13;1.92;;;;;;;;;;6192263;23;20035;-83
2023/01/28 00:46:40;;;;;;;4.40;2.63;;;;;;;;;;6190928;23;20165;-83
2023/01/28 00:49:08;;;;;;;2.53;2.00;;;;;;;;;;6227285;23;20012;-83
2023/01/28 00:51:35;;;;;;;1.55;1.45;;;;;;;;;;6215083;23;20027;-83
2023/01/28 00:54:02;;;;;;;2.35;1.55;;;;;;;;;;6189411;23;20352;-83
2023/01/28 00:56:31;;;;;;;3.47;1.55;;;;;;;;;;6191891;23;20349;-83
2023/01/28 00:58:58;;;;;;;2.92;2.42;;;;;;;;;;6227655;23;20012;-83
2023/01/28 01:01:27;;;;;;;3.03;2.00;;;;;;;;;;6216875;23;20016;-83
2023/01/28 01:04:01;;;;;;;2.67;1.63;;;;;;;;;;6191341;23;20450;-83
2023/01/28 01:06:31;;;;;;;3.58;2.35;;;;;;;;;;6226504;23;20020;-83
2023/01/28 01:09:05;;;;;;;1.70;1.60;;;;;;;;;;6226663;23;20023;-83
2023/01/28 01:11:36;;;;;;;1.45;1.35;;;;;;;;;;6242119;23;20020;-83
2023/01/28 01:14:04;;;;;;;1.80;1.70;;;;;;;;;;6214130;23;20488;-83
2023/01/28 01:16:32;;;;;;;2.38;1.52;;;;;;;;;;6216176;23;20457;-83
2023/01/28 01:18:59;;;;;;;2.13;1.85;;;;;;;;;;6217743;23;20012;-83
2023/01/28 01:21:28;;;;;;;1.88;1.60;;;;;;;;;;6216306;23;20012;-83
2023/01/28 01:23:56;;;;;;;2.03;1.48;;;;;;;;;;6191116;23;20023;-83
2023/01/28 01:26:26;;;;;;;1.85;1.60;;;;;;;;;;6190173;23;20016;-83
2023/01/28 01:28:59;;;;;;;1.40;1.02;;;;;;;;;;6254759;23;20012;-83
2023/01/28 01:31:26;;;;;;;2.65;1.85;;;;;;;;;;6189968;23;20352;-83
2023/01/28 01:33:55;;;;;;;3.05;1.67;;;;;;;;;;6222019;23;20345;-83
2023/01/28 01:36:28;;;;;;;2.10;1.73;;;;;;;;;;6191412;23;20027;-82
2023/01/28 01:38:57;;;;;;;1.73;1.63;;;;;;;;;;6191206;23;20468;-83
2023/01/28 01:41:29;;;;;;;2.17;1.90;;;;;;;;;;6189545;23;20023;-83
2023/01/28 01:43:57;;;;;;;2.38;1.48;;;;;;;;;;6216348;23;20012;-83
2023/01/28 01:46:34;;;;;;;1.48;1.33;;;;;;;;;;6189876;23;20016;-83
2023/01/28 01:49:07;;;;;;;1.30;1.13;;;;;;;;;;6213895;23;20028;-83
2023/01/28 01:51:36;;;;;;;2.50;1.77;;;;;;;;;;6190021;23;20495;-83
2023/01/28 01:54:06;;;;;;;2.28;1.60;;;;;;;;;;6191489;23;20023;-83
2023/01/28 01:56:39;;;;;;;2.47;1.35;;;;;;;;;;6215901;23;20016;-82
2023/01/28 01:59:12;;;;;;;2.63;2.42;;;;;;;;;;6224855;23;20020;-83
2023/01/28 02:01:44;;;;;;;1.90;1.70;;;;;;;;;;6215793;23;20016;-82
2023/01/28 02:04:13;;;;;;;2.55;1.77;;;;;;;;;;6247029;22;20027;-83
2023/01/28 02:06:41;;;;;;;6.60;2.35;;;;;;;;;;6189886;23;20012;-83
2023/01/28 02:09:22;;;;;;;3.78;2.75;;;;;;;;;;6216320;23;20019;-83
2023/01/28 02:11:51;;;;;;;3.50;3.20;;;;;;;;;;6224318;23;20448;-83
2023/01/28 02:14:19;;;;;;;3.70;1.90;;;;;;;;;;6216882;23;20017;-83
2023/01/28 02:16:53;;;;;;;2.03;1.83;;;;;;;;;;6189748;23;20031;-83
2023/01/28 02:19:27;;;;;;;3.10;2.20;;;;;;;;;;6215590;23;20020;-82
2023/01/28 02:22:04;;;;;;;2.88;2.58;;;;;;;;;;6226326;23;20600;-83
2023/01/28 02:25:03;;;;;;;3.70;2.22;;;;;;;;;;6218388;23;20016;-83
2023/01/28 02:27:37;;;;;;;3.47;2.78;;;;;;;;;;6224682;23;20027;-83
2023/01/28 02:30:11;;;;;;;3.00;2.22;;;;;;;;;;6189609;23;20023;-83
2023/01/28 02:32:44;;;;;;;2.92;2.40;;;;;;;;;;6226465;23;20019;-83
2023/01/28 02:35:15;;;;;;;3.45;2.35;;;;;;;;;;6190134;23;20016;-83
2023/01/28 02:37:47;;;;;;;5.28;3.53;;;;;;;;;;6223108;23;20034;-83
2023/01/28 02:40:17;;;;;;;3.53;2.65;;;;;;;;;;6247877;23;20009;-83
2023/01/28 02:42:45;;;;;;;3.55;2.28;;;;;;;;;;6191725;22;20020;-83
2023/01/28 02:45:19;;;;;;;3.50;2.40;;;;;;;;;;6213887;23;20016;-83
2023/01/28 02:47:56;;;;;;;4.18;2.30;;;;;;;;;;6190569;23;20353;-83
2023/01/28 02:50:29;;;;;;;3.47;2.83;;;;;;;;;;6223286;23;20368;-83
2023/01/28 02:55:54;;;;;;;3.42;3.03;;;;;;;;;;6215099;23;20020;-83
2023/01/28 02:58:32;;;;;;;2.55;2.33;;;;;;;;;;6215069;23;20016;-83
2023/01/28 03:01:08;;;;;;;3.60;3.30;;;;;;;;;;6212259;23;20027;-83
2023/01/28 03:03:42;;;;;;;3.50;2.83;;;;;;;;;;6221963;23;20016;-82
2023/01/28 03:06:14;;;;;;;5.93;4.05;;;;;;;;;;6224985;23;20017;-82
2023/01/28 03:36:53;;;;;;;5.20;3.75;;;;;;;;;;6227634;23;20474;-83
2023/01/28 03:39:34;;;;;;;4.70;2.40;;;;;;;;;;6216321;23;20464;-83
2023/01/28 03:42:05;;;;;;;2.30;1.98;;;;;;;;;;6191341;23;20019;-83
2023/01/28 03:44:49;;;;;;;2.90;2.33;;;;;;;;;;6192422;23;20023;-82
2023/01/28 03:47:17;;;;;;;2.60;2.40;;;;;;;;;;6191806;23;20023;-82
2023/01/28 03:49:48;;;;;;;3.83;2.55;;;;;;;;;;6216804;23;20008;-82
2023/01/28 03:52:19;;;;;;;;;;;;;;;;;;6227701;23;20012;-83
2023/01/28 03:54:47;;;;;;;3.50;2.45;;;;;;;;;;6219317;23;19915;-83
2023/01/28 03:57:18;;;;;;;2.40;1.90;;;;;;;;;;6216578;23;20012;-83
2023/01/28 03:59:48;;;;;;;8.82;6.53;;;;;;;;;;6191753;23;20016;-82
2023/01/28 04:02:16;;;;;;;5.97;4.20;;;;;;;;;;6191764;23;20483;-83
2023/01/28 04:04:50;;;;;;;4.50;3.38;;;;;;;;;;6238791;22;20019;-84
2023/01/28 04:07:17;;;;;;;4.38;3.05;;;;;;;;;;6222791;22;20038;-83
2023/01/28 04:10:09;;;;;;;4.32;3.42;;;;;;;;;;6257313;22;20019;-84
2023/01/28 04:12:48;;;;;;;4.10;2.78;;;;;;;;;;6258070;22;20011;-83
2023/01/28 04:15:18;;;;;;;3.58;3.28;;;;;;;;;;6249095;22;20038;-84
2023/01/28 04:17:50;;;;;;;3.67;2.80;;;;;;;;;;6270397;22;20011;-83
2023/01/28 04:20:29;;;;;;;3.15;2.70;;;;;;;;;;6241864;22;20023;-84
2023/01/28 04:23:01;;;;;;;4.40;3.20;;;;;;;;;;6227059;22;20020;-84
2023/01/28 04:25:29;;;;;;;4.68;2.72;;;;;;;;;;6221551;22;20016;-84
2023/01/28 04:27:58;;;;;;;3.05;2.63;;;;;;;;;;6246797;22;20020;-84
2023/01/28 04:30:28;;;;;;;3.60;2.72;;;;;;;;;;6221530;22;20484;-84
2023/01/28 04:33:21;;;;;;;2.83;2.10;;;;;;;;;;6238593;22;20032;-83
2023/01/28 04:35:55;;;;;;;3.67;2.80;;;;;;;;;;6282443;22;20011;-84
2023/01/28 04:38:35;;;;;;;2.60;2.30;;;;;;;;;;6221619;22;20019;-83
2023/01/28 04:41:28;;;;;;;3.13;2.38;;;;;;;;;;6270345;22;20479;-84
2023/01/28 04:43:59;;;;;;;4.32;2.78;;;;;;;;;;6221949;22;20016;-83
2023/01/28 04:46:41;;;;;;;3.42;2.20;;;;;;;;;;6221847;22;20019;-83
2023/01/28 04:49:28;;;;;;;4.32;2.33;;;;;;;;;;6274215;22;20356;-83
2023/01/28 04:52:26;;;;;;;3.53;2.58;;;;;;;;;;6221885;22;20015;-83
2023/01/28 04:55:05;;;;;;;4.60;2.95;;;;;;;;;;6247512;22;20019;-84
2023/01/28 04:57:33;;;;;;;3.08;2.53;;;;;;;;;;6248157;22;20012;-84
2023/01/28 05:00:04;;;;;;;3.92;2.78;;;;;;;;;;6246769;22;20019;-83
2023/01/28 05:02:32;;;;;;;2.92;2.42;;;;;;;;;;6222902;22;20020;-84
2023/01/28 05:05:00;;;;;;;1.92;1.60;;;;;;;;;;6246342;22;20034;-84
2023/01/28 05:07:51;;;;;;;2.60;2.40;;;;;;;;;;6283972;22;20011;-84
2023/01/28 05:10:22;;;;;;;4.30;2.97;;;;;;;;;;6256551;22;20034;-83
2023/01/28 05:12:50;;;;;;;3.50;2.55;;;;;;;;;;6248377;22;20019;-83
2023/01/28 05:15:20;;;;;;;3.72;2.28;;;;;;;;;;6244526;22;20019;-84
2023/01/28 05:17:48;;;;;;;2.47;2.08;;;;;;;;;;6247862;22;20018;-84
2023/01/28 05:20:17;;;;;;;3.15;2.42;;;;;;;;;;6273974;22;20012;-84
2023/01/28 05:22:47;;;;;;;5.05;2.50;;;;;;;;;;6222763;22;20016;-83
2023/01/28 05:25:26;;;;;;;3.72;2.90;;;;;;;;;;6274136;22;20008;-84
2023/01/28 05:27:53;;;;;;;2.97;2.38;;;;;;;;;;6246584;22;20474;-83
2023/01/28 05:30:23;;;;;;;3.78;2.35;;;;;;;;;;6246802;22;20359;-83
2023/01/28 05:32:55;;;;;;;2.80;2.13;;;;;;;;;;6247012;22;20026;-83
2023/01/28 05:35:23;;;;;;;3.55;2.22;;;;;;;;;;6246685;22;20011;-83
2023/01/28 05:37:51;;;;;;;3.58;3.03;;;;;;;;;;6247800;22;20034;-84
2023/01/28 05:40:19;;;;;;;3.65;2.08;;;;;;;;;;6247041;22;20026;-83
2023/01/28 05:42:48;;;;;;;2.83;2.53;;;;;;;;;;6222274;22;20015;-83
2023/01/28 05:45:41;;;;;;;4.55;3.20;;;;;;;;;;6228713;22;20011;-83
2023/01/28 05:48:12;;;;;;;3.40;2.63;;;;;;;;;;6257142;22;20024;-82
2023/01/28 05:51:06;;;;;;;4.68;2.42;;;;;;;;;;6215975;22;20016;-83
2023/01/28 05:53:35;;;;;;;3.10;2.75;;;;;;;;;;6221563;22;20015;-84
2023/01/28 05:56:03;;;;;;;3.03;2.28;;;;;;;;;;6256190;22;20016;-83
2023/01/28 05:58:35;;;;;;;3.15;2.75;;;;;;;;;;6253226;22;20020;-83
2023/01/28 06:01:07;;;;;;;2.67;2.47;;;;;;;;;;6272264;22;20348;-84
2023/01/28 06:03:41;;;;;;;3.00;2.70;;;;;;;;;;6254090;22;20012;-83
2023/01/28 06:06:09;;;;;;;2.95;2.38;;;;;;;;;;6219273;22;20011;-84
2023/01/28 06:08:37;;;;;;;3.58;2.65;;;;;;;;;;6246465;22;20016;-83
2023/01/28 06:11:06;;;;;;;2.78;2.45;;;;;;;;;;6246020;22;20324;-83
2023/01/28 06:13:36;;;;;;;3.45;2.30;;;;;;;;;;6254432;22;20015;-83
2023/01/28 06:16:25;;;;;;;2.22;1.80;;;;;;;;;;6256425;22;20015;-83
2023/01/28 06:19:11;;;;;;;5.00;2.85;;;;;;;;;;6273166;22;20356;-83
2023/01/28 06:21:38;;;;;;;2.72;2.42;;;;;;;;;;6246345;22;20016;-83
2023/01/28 06:24:08;;;;;;;2.22;2.03;;;;;;;;;;6221423;22;20019;-83
2023/01/28 06:26:37;;;;;;;3.38;2.72;;;;;;;;;;6220499;22;20012;-84
2023/01/28 06:29:06;;;;;;;3.35;2.97;;;;;;;;;;6246819;22;20019;-85
2023/01/28 06:31:33;;;;;;;3.90;2.50;;;;;;;;;;6221282;22;20027;-84
2023/01/28 06:34:00;;;;;;;3.13;2.55;;;;;;;;;;6273801;22;20054;-84
2023/01/28 06:36:28;;;;;;;3.47;3.00;;;;;;;;;;6219958;22;20459;-84
2023/01/28 06:38:55;;;;;;;3.75;3.35;;;;;;;;;;6275374;22;20046;-84
2023/01/28 06:41:22;;;;;;;3.45;2.92;;;;;;;;;;6271664;22;20011;-84
2023/01/28 06:43:49;;;;;;;2.97;2.00;;;;;;;;;;6219711;22;20023;-84
2023/01/28 06:46:18;;;;;;;3.80;3.00;;;;;;;;;;6243162;22;20011;-84
2023/01/28 06:48:47;;;;;;;4.00;2.67;;;;;;;;;;6251822;22;20027;-83
2023/01/28 06:51:14;;;;;;;3.92;2.38;;;;;;;;;;6245654;22;20018;-83
2023/01/28 06:54:14;;;;;;;2.80;2.25;;;;;;;;;;6227467;22;20018;-91
2023/01/28 06:56:43;;;;;;;3.38;2.67;;;;;;;;;;6219791;22;20019;-91
2023/01/28 06:59:10;;;;;;;2.83;2.58;;;;;;;;;;6222077;22;20467;-90
2023/01/28 07:01:40;;;;;;;3.03;2.42;;;;;;;;;;6234874;22;20024;-90
2023/01/28 07:04:07;;;;;;;4.30;2.90;;;;;;;;;;6219421;22;20020;-91
2023/01/28 07:06:37;;;;;;;2.72;1.92;;;;;;;;;;6244403;22;20012;-91
2023/01/28 07:09:07;;;;;;;3.15;2.17;;;;;;;;;;6219837;22;20019;-91
2023/01/28 07:11:35;;;;;;;4.65;2.35;;;;;;;;;;6280445;22;20328;-91
2023/01/28 07:14:05;;;;;;;3.05;2.75;;;;;;;;;;6220849;22;20366;-91
2023/01/28 07:16:33;;;;;;;4.72;2.78;;;;;;;;;;6219455;22;20031;-92
2023/01/28 07:19:05;;;;;;;3.03;2.72;;;;;;;;;;6245335;22;20026;-91
2023/01/28 07:21:33;;;;;;;2.75;1.75;;;;;;;;;;6218893;22;20016;-91
2023/01/28 07:24:04;;;;;;;3.38;2.25;;;;;;;;;;6219899;22;20038;-92
2023/01/28 07:26:31;;;;;;;3.17;1.80;;;;;;;;;;6244402;22;20490;-91
2023/01/28 07:28:59;;;;;;;2.83;2.22;;;;;;;;;;6244957;22;20363;-91
2023/01/28 07:31:28;;;;;;;3.72;2.92;;;;;;;;;;6194842;22;20355;-91
2023/01/28 07:33:56;;;;;;;3.03;2.47;;;;;;;;;;6220006;22;20019;-91
2023/01/28 07:36:25;;;;;;;3.22;2.58;;;;;;;;;;6243298;22;20463;-91
2023/01/28 07:38:52;;;;;;;4.72;2.60;;;;;;;;;;6244758;22;20020;-91
2023/01/28 07:41:25;;;;;;;3.53;2.65;;;;;;;;;;6269504;22;20023;-91
2023/01/28 07:43:53;;;;;;;3.03;2.47;;;;;;;;;;6219439;22;20016;-92
2023/01/28 07:46:20;;;;;;;3.83;2.85;;;;;;;;;;6218245;22;20414;-91
2023/01/28 07:48:48;;;;;;;1.88;1.65;;;;;;;;;;6217521;22;20020;-91
2023/01/28 07:51:16;;;;;;;3.08;2.42;;;;;;;;;;6217122;22;20019;-91
2023/01/28 07:53:45;;;;;;;2.90;1.98;;;;;;;;;;6245095;22;20015;-92
2023/01/28 07:56:12;;;;;;;2.17;1.90;;;;;;;;;;6223572;22;20354;-92
2023/01/28 07:58:42;;;;;;;4.13;3.13;;;;;;;;;;6243619;22;20012;-91
2023/01/28 08:01:13;;;;;;;3.50;2.80;;;;;;;;;;6246893;22;20047;-91
2023/01/28 08:03:42;;;;;;;2.97;2.22;;;;;;;;;;6220199;22;20023;-91
2023/01/28 08:06:10;;;;;;;2.83;2.38;;;;;;;;;;6243472;22;20023;-91
2023/01/28 08:08:38;;;;;;;3.75;2.72;;;;;;;;;;6220603;22;20026;-91
2023/01/28 08:11:10;;;;;;;3.75;2.65;;;;;;;;;;6218756;22;20016;-91
2023/01/28 08:13:38;;;;;;;3.67;2.55;;;;;;;;;;6220088;22;20026;-90
2023/01/28 08:16:07;;;;;;;2.60;2.40;;;;;;;;;;6195192;22;20458;-90
2023/01/28 08:18:34;;;;;;;2.92;2.30;;;;;;;;;;6221732;22;20474;-92
2023/01/28 08:21:04;;;;;;;2.88;2.22;;;;;;;;;;6221369;22;20024;-91
2023/01/28 08:23:33;;;;;;;3.92;3.45;;;;;;;;;;6221928;22;20019;-91
2023/01/28 08:26:01;;;;;;;3.67;2.53;;;;;;;;;;6220642;22;20028;-91
2023/01/28 08:28:33;;;;;;;3.97;3.38;;;;;;;;;;6258753;22;20019;-90
2023/01/28 08:31:01;;;;;;;3.80;3.20;;;;;;;;;;6244682;22;20023;-91
2023/01/28 08:33:29;;;;;;;4.35;2.28;;;;;;;;;;6247280;22;20336;-90
2023/01/28 08:35:57;;;;;;;3.55;2.78;;;;;;;;;;6220651;22;20458;-88
2023/01/28 08:38:28;;;;;;;3.63;2.40;;;;;;;;;;6245963;22;20023;-90
2023/01/28 08:40:57;;;;;;;4.85;2.53;;;;;;;;;;6220921;22;20020;-90
2023/01/28 08:43:27;;;;;;;4.13;2.78;;;;;;;;;;6221479;22;20015;-90
2023/01/28 08:45:56;;;;;;;3.78;3.08;;;;;;;;;;6220368;22;20035;-90
2023/01/28 08:48:24;;;;;;;5.03;2.80;;;;;;;;;;6221399;22;20023;-90
2023/01/28 08:50:52;;;;;;;4.63;3.22;;;;;;;;;;6220932;22;20023;-90
2023/01/28 08:53:21;;;;;;;3.00;2.20;;;;;;;;;;6245750;22;20022;-90
2023/01/28 08:55:48;;;;;;;3.58;2.33;;;;;;;;;;6221328;22;20019;-92
2023/01/28 08:58:18;;;;;;;4.88;3.05;;;;;;;;;;6220242;22;20355;-89
2023/01/28 09:00:46;;;;;;;3.35;2.53;;;;;;;;;;6221620;22;20574;-90
2023/01/28 09:03:15;;;;;;;3.45;2.42;;;;;;;;;;6247024;22;20012;-90
2023/01/28 09:05:43;;;;;;;2.90;2.63;;;;;;;;;;6221042;22;20015;-90
2023/01/28 09:08:12;;;;;;;4.35;2.47;;;;;;;;;;6220952;22;20019;-90
2023/01/28 09:10:41;;;;;;;4.53;3.42;;;;;;;;;;6222185;22;20019;-90
2023/01/28 09:13:13;;;;;;;7.20;3.25;;;;;;;;;;6246411;22;20016;-91
2023/01/28 09:15:40;;;;;;;4.00;2.70;;;;;;;;;;6245789;22;20632;-90
2023/01/28 09:18:09;;;;;;;3.95;2.60;;;;;;;;;;6220879;22;20039;-90
2023/01/28 09:20:38;;;;;;;2.83;2.40;;;;;;;;;;6220663;22;20019;-90
2023/01/28 09:23:14;;;;;;;3.55;3.25;;;;;;;;;;6221603;22;20022;-91
2023/01/28 09:25:41;;;;;;;2.85;2.30;;;;;;;;;;6217952;22;20012;-90
2023/01/28 09:28:09;;;;;;;4.57;3.33;;;;;;;;;;6220565;22;20046;-90
2023/01/28 09:30:38;;;;;;;2.53;2.25;;;;;;;;;;6246246;22;20016;-91
2023/01/28 09:33:07;;;;;;;4.63;2.63;;;;;;;;;;6247032;22;20074;-90
2023/01/28 09:35:39;;;;;;;5.07;3.95;;;;;;;;;;6220468;22;20012;-91
2023/01/28 09:38:06;;;;;;;5.07;2.85;;;;;;;;;;6247568;22;20012;-90
2023/01/28 09:40:37;;;;;;;4.30;3.35;;;;;;;;;;6246022;22;20016;-91
2023/01/28 09:43:34;;;;;;;2.92;2.58;;;;;;;;;;6246385;22;20035;-91
2023/01/28 09:46:04;;;;;;;4.30;2.42;;;;;;;;;;6217078;22;20016;-90
2023/01/28 09:48:36;;;;;;;4.53;3.63;;;;;;;;;;6221693;22;20012;-91
2023/01/28 09:51:13;;;;;;;5.35;3.20;;;;;;;;;;6220622;22;20019;-91
2023/01/28 09:53:46;;;;;;;4.75;2.75;;;;;;;;;;6222046;22;20031;-91
2023/01/28 09:56:24;;;;;;;4.38;3.13;;;;;;;;;;6245557;22;20020;-91
2023/01/28 09:58:52;;;;;;;3.83;3.22;;;;;;;;;;6246580;22;20012;-90
2023/01/28 10:01:40;;;;;;;2.90;2.60;;;;;;;;;;6246977;22;20039;-91
2023/01/28 10:04:21;;;;;;;3.20;2.42;;;;;;;;;;6221615;22;20011;-80
2023/01/28 10:06:58;;;;;;;3.40;3.00;;;;;;;;;;6219867;22;20023;-80
2023/01/28 10:09:33;;;;;;;6.90;3.90;;;;;;;;;;6244373;22;20016;-80
2023/01/28 10:12:14;;;;;;;5.30;3.47;;;;;;;;;;6254333;22;20038;-82
2023/01/28 10:14:53;;;;;;;8.25;3.80;;;;;;;;;;6245853;22;20026;-82
2023/01/28 10:17:23;;;;;;;5.25;2.97;;;;;;;;;;6255151;22;20018;-83
2023/01/28 10:19:52;;;;;;;5.75;2.92;;;;;;;;;;6219742;22;20019;-83
2023/01/28 10:22:26;;;;;;;4.82;2.70;;;;;;;;;;6245863;22;20027;-82
2023/01/28 10:24:57;;;;;;;3.85;3.30;;;;;;;;;;6244238;22;20018;-83
2023/01/28 10:27:29;;;;;;;4.25;2.55;;;;;;;;;;6218862;22;20019;-82
2023/01/28 10:29:59;;;;;;;2.70;2.50;;;;;;;;;;6219625;22;20027;-83
2023/01/28 10:32:32;;;;;;;3.80;2.70;;;;;;;;;;6222820;22;20030;-83
2023/01/28 10:38:01;;;;;;;4.20;3.72;;;;;;;;;;6279028;22;20455;-89
2023/01/28 10:40:29;;;;;;;4.22;2.65;;;;;;;;;;6225761;22;20016;-88
2023/01/28 10:42:56;;;;;;;5.07;3.20;;;;;;;;;;6226583;22;20020;-88
2023/01/28 10:45:28;;;;;;;4.53;3.63;;;;;;;;;;6250079;22;20042;-88
2023/01/28 10:48:00;;;;;;;6.43;3.22;;;;;;;;;;6229726;22;20024;-90
2023/01/28 10:50:30;;;;;;;4.45;3.58;;;;;;;;;;6203023;22;20362;-88
2023/01/28 10:53:01;;;;;;;3.17;2.67;;;;;;;;;;6249768;22;20023;-91
2023/01/28 10:55:31;;;;;;;4.43;3.78;;;;;;;;;;6251635;22;20015;-88
2023/01/28 10:57:58;;;;;;;4.07;2.97;;;;;;;;;;6225366;22;20022;-90
2023/01/28 11:00:29;;;;;;;2.95;2.15;;;;;;;;;;6249019;22;20024;-89
2023/01/28 11:02:58;;;;;;;5.40;3.05;;;;;;;;;;6225165;22;20027;-90
2023/01/28 11:05:29;;;;;;;3.53;3.00;;;;;;;;;;6223511;22;20023;-88
2023/01/28 11:08:07;;;;;;;5.20;3.72;;;;;;;;;;6224402;22;20022;-89
2023/01/28 11:10:39;;;;;;;4.45;3.25;;;;;;;;;;6226383;22;20016;-88
2023/01/28 11:13:14;;;;;;;5.50;3.60;;;;;;;;;;6223081;22;20023;-89
2023/01/28 11:15:49;;;;;;;4.65;3.20;;;;;;;;;;6226384;22;20015;-90
2023/01/28 11:18:19;;;;;;;5.50;3.63;;;;;;;;;;6224737;22;20019;-90
2023/01/28 11:20:52;;;;;;;2.78;2.15;;;;;;;;;;6223217;22;20016;-90
2023/01/28 11:23:25;;;;;;;4.60;3.17;;;;;;;;;;6224807;22;20023;-89
2023/01/28 11:26:04;;;;;;;4.35;3.28;;;;;;;;;;6250566;22;20018;-90
2023/01/28 11:28:32;;;;;;;4.82;3.00;;;;;;;;;;6224333;22;20011;-88
2023/01/28 11:31:02;;;;;;;6.03;4.30;;;;;;;;;;6222001;22;20027;-90
2023/01/28 11:33:35;;;;;;;2.47;2.03;;;;;;;;;;6223360;22;20016;-89
2023/01/28 11:36:09;;;;;;;6.80;4.37;;;;;;;;;;6223864;22;20362;-88
2023/01/28 11:38:52;;;;;;;6.15;3.58;;;;;;;;;;6224321;22;20741;-88
2023/01/28 11:41:27;;;;;;;6.38;3.50;;;;;;;;;;6223147;22;20020;-89
2023/01/28 11:43:58;;;;;;;4.57;3.28;;;;;;;;;;6281201;22;20359;-89
2023/01/28 11:46:50;;;;;;;5.68;3.85;;;;;;;;;;6248352;22;20019;-89
2023/01/28 11:49:25;;;;;;;4.43;3.55;;;;;;;;;;6249336;22;20170;-90
2023/01/28 11:51:59;;;;;;;3.50;2.83;;;;;;;;;;6250048;22;20011;-91
2023/01/28 11:54:43;;;;;;;5.97;3.35;;;;;;;;;;6280407;22;20012;-88
2023/01/28 11:57:18;;;;;;;6.05;4.97;;;;;;;;;;6222667;22;20015;-89
2023/01/28 12:00:03;;;;;;;4.70;3.53;;;;;;;;;;6223610;22;20023;-89
2023/01/28 12:02:45;;;;;;;5.50;3.70;;;;;;;;;;6251416;22;20019;-91
2023/01/28 12:05:22;;;;;;;4.53;3.72;;;;;;;;;;6226923;22;20012;-88
2023/01/28 12:07:55;;;;;;;3.58;2.83;;;;;;;;;;6287555;22;20016;-90
2023/01/28 12:10:34;;;;;;;4.03;3.63;;;;;;;;;;6251329;22;20019;-91
2023/01/28 12:13:14;;;;;;;4.80;3.17;;;;;;;;;;6236818;22;20020;-91
2023/01/28 12:15:56;;;;;;;3.05;2.17;;;;;;;;;;6252319;22;20027;-91
2023/01/28 12:18:58;;;;;;;5.97;2.92;;;;;;;;;;6252418;22;20023;-90
2023/01/28 12:21:34;;;;;;;3.85;2.90;;;;;;;;;;6253063;22;20018;-90
2023/01/28 12:24:18;;;;;;;3.33;2.40;;;;;;;;;;6253306;22;20020;-89
2023/01/28 12:26:52;;;;;;;2.97;2.33;;;;;;;;;;6226032;22;20019;-89
2023/01/28 12:29:22;;;;;;;;;;;;;;;;;;6250426;22;20019;-90
2023/01/28 12:32:02;;;;;;;3.63;2.55;;;;;;;;;;6226543;22;19915;-89
2023/01/28 12:34:45;;;;;;;3.15;2.58;;;;;;;;;;6227352;22;20019;-91
2023/01/28 12:37:24;;;;;;;2.92;2.10;;;;;;;;;;6226138;22;20012;-90
2023/01/28 12:40:06;;;;;;;2.58;1.70;;;;;;;;;;6252187;22;20363;-91
2023/01/28 12:42:38;;;;;;;2.88;2.45;;;;;;;;;;6225040;22;20015;-90
2023/01/28 12:45:15;;;;;;;2.45;1.75;;;;;;;;;;6225532;22;20019;-89
2023/01/28 12:47:56;;;;;;;4.25;2.65;;;;;;;;;;6249918;22;20022;-90
2023/01/28 12:50:29;;;;;;;3.72;2.88;;;;;;;;;;6249426;22;20034;-90
2023/01/28 12:53:13;;;;;;;2.92;2.60;;;;;;;;;;6223795;22;20382;-90
2023/01/28 12:55:45;;;;;;;2.45;2.10;;;;;;;;;;6248609;22;20020;-89
2023/01/28 12:58:23;;;;;;;3.22;2.67;;;;;;;;;;6223114;22;20020;-89
2023/01/28 13:00:54;;;;;;;3.80;3.00;;;;;;;;;;6222955;22;20035;-89
2023/01/28 13:03:27;;;;;;;3.92;2.63;;;;;;;;;;6223432;22;20012;-91
2023/01/28 13:05:59;;;;;;;4.38;3.08;;;;;;;;;;6260092;22;20019;-92
2023/01/28 13:08:28;;;;;;;3.85;2.97;;;;;;;;;;6276772;22;20007;-90
2023/01/28 13:10:58;;;;;;;4.45;2.42;;;;;;;;;;6222539;22;20348;-89
2023/01/28 13:13:32;;;;;;;3.30;2.10;;;;;;;;;;6250130;22;20023;-89
2023/01/28 13:16:00;;;;;;;3.90;2.92;;;;;;;;;;6250812;22;20328;-91
2023/01/28 13:18:32;;;;;;;7.75;2.83;;;;;;;;;;6223997;22;20020;-90
2023/01/28 13:21:01;;;;;;;3.25;2.53;;;;;;;;;;6248428;22;20015;-89
2023/01/28 13:23:39;;;;;;;3.28;2.05;;;;;;;;;;6251036;22;20022;-90
2023/01/28 13:26:25;;;;;;;6.45;4.15;;;;;;;;;;6227016;22;20022;-91
2023/01/28 13:28:59;;;;;;;3.28;2.95;;;;;;;;;;6251770;22;20026;-93
2023/01/28 13:31:45;;;;;;;3.97;2.88;;;;;;;;;;6275660;22;20022;-90
2023/01/28 13:34:28;;;;;;;4.13;2.97;;;;;;;;;;6223669;22;20034;-90
2023/01/28 13:37:00;;;;;;;6.20;3.08;;;;;;;;;;6225730;22;20027;-90
2023/01/28 13:39:29;;;;;;;3.35;2.85;;;;;;;;;;6227615;22;20016;-91
2023/01/28 13:42:21;;;;;;;4.03;2.85;;;;;;;;;;6222900;22;20011;-93
2023/01/28 13:44:51;;;;;;;3.65;2.40;;;;;;;;;;6251023;22;20496;-91
2023/01/28 13:47:26;;;;;;;4.82;3.03;;;;;;;;;;6287513;22;20338;-90
2023/01/28 13:49:58;;;;;;;3.22;2.72;;;;;;;;;;6225846;22;20011;-89
2023/01/28 13:52:32;;;;;;;5.22;2.70;;;;;;;;;;6226989;22;20023;-91
2023/01/28 13:55:23;;;;;;;3.30;2.65;;;;;;;;;;6225946;22;20016;-89
2023/01/28 13:58:44;;;;;;;4.10;3.20;;;;;;;;;;6226558;22;20026;-90
2023/01/28 14:01:50;;;;;;;3.33;3.03;;;;;;;;;;6279307;22;20016;-91
2023/01/28 14:04:56;;;;;;;3.95;2.75;;;;;;;;;;6224932;22;20022;-90
2023/01/28 14:07:52;;;;;;;6.22;3.35;;;;;;;;;;6249527;22;20400;-89
2023/01/28 14:10:34;;;;;;;3.42;2.92;;;;;;;;;;6223798;22;20018;-91
2023/01/28 14:13:13;;;;;;;4.38;2.85;;;;;;;;;;6249552;22;20015;-90
2023/01/28 14:15:51;;;;;;;3.25;2.40;;;;;;;;;;6222299;22;20019;-90
2023/01/28 14:18:26;;;;;;;3.78;2.67;;;;;;;;;;6224232;22;20015;-89
2023/01/28 14:21:00;;;;;;;4.43;2.10;;;;;;;;;;6246313;22;20019;-90
2023/01/28 14:23:38;;;;;;;3.45;2.38;;;;;;;;;;6270644;22;20482;-89
2023/01/28 14:26:16;;;;;;;4.22;2.75;;;;;;;;;;6231045;22;20012;-91
2023/01/28 14:28:49;;;;;;;3.22;2.40;;;;;;;;;;6259936;22;20022;-89
2023/01/28 14:31:25;;;;;;;4.28;3.28;;;;;;;;;;6224975;22;20031;-91
2023/01/28 14:34:06;;;;;;;3.38;2.15;;;;;;;;;;6250185;22;20362;-90
2023/01/28 14:36:37;;;;;;;3.00;2.70;;;;;;;;;;6224264;22;20350;-89
2023/01/28 14:39:06;;;;;;;3.22;2.67;;;;;;;;;;6247255;22;20016;-89
2023/01/28 14:41:34;;;;;;;3.75;2.17;;;;;;;;;;6222598;22;20011;-89
2023/01/28 14:44:02;;;;;;;3.30;2.53;;;;;;;;;;6247347;22;20016;-89
2023/01/28 14:46:34;;;;;;;5.28;2.50;;;;;;;;;;6222791;22;20022;-89
2023/01/28 14:49:27;;;;;;;3.72;2.60;;;;;;;;;;6247826;22;20026;-89
2023/01/28 14:52:42;;;;;;;3.53;2.75;;;;;;;;;;6247379;22;20022;-89
2023/01/28 14:55:26;;;;;;;3.50;2.65;;;;;;;;;;6247262;22;20020;-90
2023/01/28 14:58:00;;;;;;;2.53;2.10;;;;;;;;;;6247587;22;20016;-90
2023/01/28 15:00:38;;;;;;;2.75;2.53;;;;;;;;;;6247626;22;20023;-90
2023/01/28 15:03:16;;;;;;;4.90;3.15;;;;;;;;;;6222563;22;20474;-89
2023/01/28 15:05:47;;;;;;;3.20;2.55;;;;;;;;;;6248374;22;20098;-89
2023/01/28 15:08:21;;;;;;;4.13;2.58;;;;;;;;;;6222431;22;20494;-91
2023/01/28 15:10:51;;;;;;;3.40;3.10;;;;;;;;;;6221805;22;20016;-90
2023/01/28 15:13:26;;;;;;;4.40;3.50;;;;;;;;;;6223797;22;20606;-90
2023/01/28 15:15:59;;;;;;;2.92;2.20;;;;;;;;;;6286362;22;20012;-89
2023/01/28 15:18:31;;;;;;;3.45;2.90;;;;;;;;;;6258684;22;20016;-89
2023/01/28 15:21:02;;;;;;;3.33;2.28;;;;;;;;;;6249096;22;20019;-90
2023/01/28 15:23:32;;;;;;;5.00;3.58;;;;;;;;;;6224197;22;20012;-90
2023/01/28 15:26:05;;;;;;;5.10;3.25;;;;;;;;;;6250086;22;20027;-91
2023/01/28 15:28:37;;;;;;;8.90;3.40;;;;;;;;;;6225977;22;20016;-90
2023/01/28 15:31:07;;;;;;;7.00;3.42;;;;;;;;;;6275544;22;20351;-90
2023/01/28 15:33:37;;;;;;;2.88;2.53;;;;;;;;;;6222747;22;20386;-89
2023/01/28 15:36:07;;;;;;;4.75;4.28;;;;;;;;;;6248033;22;20018;-90
2023/01/28 15:38:34;;;;;;;6.13;3.53;;;;;;;;;;6251282;22;20016;-91
2023/01/28 15:41:03;;;;;;;4.57;2.88;;;;;;;;;;6251188;22;20498;-90
2023/01/28 15:43:35;;;;;;;5.22;3.00;;;;;;;;;;6225048;22;20023;-91
2023/01/28 15:46:12;;;;;;;6.45;2.97;;;;;;;;;;6224645;22;20378;-89
2023/01/28 15:48:43;;;;;;;4.05;3.28;;;;;;;;;;6228760;22;20010;-90
2023/01/28 15:51:18;;;;;;;5.78;3.47;;;;;;;;;;6229398;22;20473;-91
2023/01/28 15:53:48;;;;;;;4.53;3.35;;;;;;;;;;6258745;22;20019;-89